Time;durP1;ratioP1;P1;durP2;ratioP2;P2;SDS_P1;SDS_P2;PMS_P1;PMS_P2;Temp;Humidity;BMP_temperature;BMP_pressure;BME280_temperature;BME280_humidity;BME280_pressure;Samples;Min_cycle;Max_cycle;Signal;HPM_P1;HPM_P2
2023/12/28 00:00:34;;;;;;;21.20;11.30;;;;;;;2.52;98.07;100540.90;105502;1255;69186;-58
2023/12/28 00:03:22;;;;;;;23.60;10.40;;;;;;;2.56;98.21;100538.65;105483;1255;74761;-58
2023/12/28 00:05:50;;;;;;;19.50;9.80;;;;;;;2.58;98.11;100545.02;105564;1255;80961;-58
2023/12/28 00:08:19;;;;;;;21.30;10.30;;;;;;;2.62;98.33;100533.81;105477;1256;71710;-58
2023/12/28 00:10:47;;;;;;;21.10;9.80;;;;;;;2.64;98.17;100531.74;105458;1255;69167;-58
2023/12/28 00:13:15;;;;;;;19.60;10.40;;;;;;;2.64;98.12;100529.14;105469;1253;69162;-58
2023/12/28 00:15:43;;;;;;;26.00;11.20;;;;;;;2.64;97.89;100527.25;105514;1252;74945;-58
2023/12/28 00:18:11;;;;;;;15.80;9.40;;;;;;;2.63;97.93;100529.65;105519;1253;82727;-58
2023/12/28 00:20:40;;;;;;;24.90;10.40;;;;;;;2.63;97.88;100525.00;105485;1253;71862;-58
2023/12/28 00:23:08;;;;;;;19.40;10.00;;;;;;;2.64;98.21;100524.14;105502;1254;69174;-58
2023/12/28 00:25:36;;;;;;;24.10;11.30;;;;;;;2.66;98.11;100524.48;105498;1256;69219;-58
2023/12/28 00:28:05;;;;;;;24.30;11.40;;;;;;;2.69;98.14;100515.50;105486;1253;73024;-58
2023/12/28 00:30:33;;;;;;;22.40;11.10;;;;;;;2.71;98.40;100512.38;105547;1253;82191;-59
2023/12/28 00:33:02;;;;;;;20.50;9.70;;;;;;;2.71;98.13;100502.55;105532;1253;71535;-58
2023/12/28 00:35:30;;;;;;;19.70;9.60;;;;;;;2.71;98.14;100498.23;105539;1254;69202;-58
2023/12/28 00:37:58;;;;;;;18.90;9.30;;;;;;;2.71;98.18;100496.17;105525;1255;69195;-58
2023/12/28 00:40:29;;;;;;;17.30;8.70;;;;;;;2.73;97.96;100500.31;105557;1253;73826;-58
2023/12/28 00:42:57;;;;;;;21.40;9.40;;;;;;;2.73;97.98;100496.17;105583;1255;82781;-59
2023/12/28 00:45:26;;;;;;;19.50;8.60;;;;;;;2.72;98.22;100496.17;105525;1255;72897;-58
2023/12/28 00:47:56;;;;;;;14.30;7.70;;;;;;;2.72;97.93;100495.65;105615;1255;69170;-58
2023/12/28 00:50:31;;;;;;;21.20;9.00;;;;;;;2.72;98.04;100498.93;105531;1256;69117;-59
2023/12/28 00:52:59;;;;;;;18.90;9.00;;;;;;;2.71;98.11;100501.00;105532;1256;72816;-58
2023/12/28 00:55:28;;;;;;;18.20;8.60;;;;;;;2.71;97.84;100501.18;105522;1255;81646;-59
2023/12/28 00:57:56;;;;;;;19.40;8.70;;;;;;;2.69;98.10;100496.18;105506;1253;72950;-58
2023/12/28 01:00:25;;;;;;;18.50;8.10;;;;;;;2.68;98.10;100493.94;105493;1258;69145;-58
2023/12/28 01:02:53;;;;;;;20.40;8.50;;;;;;;2.67;98.11;100488.24;105465;1256;69279;-58
2023/12/28 01:05:22;;;;;;;19.00;9.10;;;;;;;2.66;98.12;100479.97;105520;1253;73004;-59
2023/12/28 01:07:50;;;;;;;20.00;8.70;;;;;;;2.66;98.19;100481.50;105455;1253;80649;-58
2023/12/28 01:10:18;;;;;;;21.50;9.10;;;;;;;2.63;97.88;100485.67;105467;1258;73478;-58
2023/12/28 01:12:47;;;;;;;18.80;8.60;;;;;;;2.61;97.91;100478.61;105570;1256;69519;-58
2023/12/28 01:15:17;;;;;;;18.20;9.10;;;;;;;2.58;97.93;100482.41;105541;1255;69675;-58
2023/12/28 01:17:46;;;;;;;;;;;;;;;2.56;98.04;100483.63;105555;1253;73062;-58
2023/12/28 01:20:14;;;;;;;16.40;8.40;;;;;;;2.54;97.86;100478.96;105557;1255;81507;-58
2023/12/28 01:22:44;;;;;;;17.60;8.70;;;;;;;2.53;98.25;100469.83;105516;1254;72048;-58
2023/12/28 01:25:12;;;;;;;18.40;8.30;;;;;;;2.53;98.11;100466.39;105407;1258;69222;-58
2023/12/28 01:27:41;;;;;;;20.90;8.80;;;;;;;2.52;98.37;100464.13;105480;1259;69596;-58
2023/12/28 01:30:11;;;;;;;16.60;8.30;;;;;;;2.52;98.40;100462.40;105539;1253;72801;-59
2023/12/28 01:32:40;;;;;;;18.70;9.40;;;;;;;2.52;98.71;100458.79;105542;1256;81509;-59
2023/12/28 01:35:08;;;;;;;20.50;10.00;;;;;;;2.50;98.28;100455.02;105478;1253;71441;-58
2023/12/28 01:37:36;;;;;;;17.60;8.40;;;;;;;2.48;98.54;100450.86;105467;1256;69139;-58
2023/12/28 01:40:05;;;;;;;17.10;9.30;;;;;;;2.46;98.41;100452.08;105488;1256;69276;-58
2023/12/28 01:42:35;;;;;;;19.30;8.80;;;;;;;2.46;98.67;100448.29;105499;1258;72487;-58
2023/12/28 01:45:04;;;;;;;17.60;8.40;;;;;;;2.45;98.40;100445.02;105589;1255;81942;-59
2023/12/28 01:47:32;;;;;;;16.20;8.00;;;;;;;2.48;98.90;100442.95;105461;1255;71793;-58
2023/12/28 01:50:02;;;;;;;14.70;8.00;;;;;;;2.49;99.01;100437.42;105528;1259;69188;-58
2023/12/28 01:52:30;;;;;;;15.50;8.20;;;;;;;2.52;99.12;100425.16;105567;1256;69186;-58
2023/12/28 01:54:58;;;;;;;14.00;7.60;;;;;;;2.55;99.13;100416.36;105529;1256;74115;-58
2023/12/28 01:57:27;;;;;;;14.40;6.90;;;;;;;2.59;99.31;100406.52;105555;1256;83640;-59
2023/12/28 01:59:55;;;;;;;13.30;7.40;;;;;;;2.62;99.39;100403.23;105352;1254;71671;-59
2023/12/28 02:02:24;;;;;;;17.00;7.30;;;;;;;2.64;99.56;100397.34;105331;1254;69101;-58
2023/12/28 02:04:52;;;;;;;12.50;6.80;;;;;;;2.67;99.53;100384.04;105483;1253;69177;-58
2023/12/28 02:07:20;;;;;;;12.90;7.00;;;;;;;2.68;99.26;100381.09;105489;1253;73412;-59
2023/12/28 02:09:49;;;;;;;13.70;6.80;;;;;;;2.67;99.19;100384.55;105581;1255;81361;-58
2023/12/28 02:12:18;;;;;;;12.60;6.60;;;;;;;2.65;99.09;100381.80;105475;1253;71703;-59
2023/12/28 02:14:46;;;;;;;13.50;7.10;;;;;;;2.63;98.84;100384.77;105676;1256;69129;-58
2023/12/28 02:17:35;;;;;;;17.30;6.20;;;;;;;2.63;99.05;100390.95;105531;1257;69085;-58
2023/12/28 02:20:06;;;;;;;15.80;6.80;;;;;;;2.61;99.00;100386.84;105614;1255;73020;-58
2023/12/28 02:22:35;;;;;;;11.20;5.70;;;;;;;2.62;99.34;100380.78;105276;1261;81638;-58
2023/12/28 02:25:07;;;;;;;13.40;6.50;;;;;;;2.64;99.39;100380.09;105518;1258;70888;-58
2023/12/28 02:27:43;;;;;;;11.50;5.50;;;;;;;2.65;99.28;100376.10;105520;1254;69266;-58
2023/12/28 02:30:13;;;;;;;10.50;5.80;;;;;;;2.65;99.24;100370.59;105475;1256;69149;-59
2023/12/28 02:33:01;;;;;;;11.40;6.10;;;;;;;2.64;99.14;100358.53;105494;1260;74061;-58
2023/12/28 02:35:33;;;;;;;12.30;5.20;;;;;;;2.62;99.44;100352.84;105317;1257;82550;-59
2023/12/28 02:38:12;;;;;;;13.40;5.80;;;;;;;2.60;99.25;100353.70;105597;1255;70586;-58
2023/12/28 02:40:43;;;;;;;10.90;5.60;;;;;;;2.58;99.45;100348.90;105536;1253;69208;-58
2023/12/28 02:43:12;;;;;;;10.90;5.80;;;;;;;2.58;99.43;100340.79;105312;1252;69290;-59
2023/12/28 02:45:40;;;;;;;11.00;5.20;;;;;;;2.58;99.49;100332.69;105375;1253;72873;-58
2023/12/28 02:48:09;;;;;;;10.60;5.80;;;;;;;2.58;99.63;100325.95;105298;1259;81876;-58
2023/12/28 02:50:38;;;;;;;12.30;5.20;;;;;;;2.57;99.40;100322.33;105561;1255;71743;-58
2023/12/28 02:53:06;;;;;;;14.30;6.10;;;;;;;2.56;99.38;100320.95;105549;1253;69288;-58
2023/12/28 02:55:35;;;;;;;11.10;5.60;;;;;;;2.55;99.54;100320.63;105555;1257;69202;-58
2023/12/28 02:58:04;;;;;;;10.60;5.80;;;;;;;2.55;99.54;100320.61;105551;1253;73168;-59
2023/12/28 03:00:32;;;;;;;10.00;4.70;;;;;;;2.55;99.67;100316.83;105542;1267;82593;-58
2023/12/28 03:03:00;;;;;;;10.10;5.40;;;;;;;2.56;99.80;100311.65;105535;1255;71714;-58
2023/12/28 03:05:29;;;;;;;11.20;5.10;;;;;;;2.56;99.86;100311.48;105558;1257;69072;-58
2023/12/28 03:07:58;;;;;;;12.00;5.00;;;;;;;2.57;99.79;100313.20;105524;1253;69167;-59
2023/12/28 03:10:27;;;;;;;14.70;5.00;;;;;;;2.58;99.89;100313.88;105599;1253;74137;-58
2023/12/28 03:12:55;;;;;;;11.20;5.30;;;;;;;2.62;99.99;100313.34;105487;1255;81810;-58
2023/12/28 03:15:24;;;;;;;9.60;5.50;;;;;;;2.65;99.97;100301.58;105528;1253;71910;-58
2023/12/28 03:17:52;;;;;;;11.90;5.30;;;;;;;2.70;100.00;100294.30;105511;1256;69108;-58
2023/12/28 03:20:21;;;;;;;13.20;6.00;;;;;;;2.72;99.94;100296.20;105509;1256;69279;-59
2023/12/28 03:22:49;;;;;;;13.40;5.90;;;;;;;2.73;99.98;100302.05;105251;1254;71717;-59
2023/12/28 03:25:19;;;;;;;9.70;5.20;;;;;;;2.76;100.00;100293.23;105545;1257;81356;-58
2023/12/28 03:27:47;;;;;;;10.60;5.50;;;;;;;2.79;99.98;100283.72;105499;1253;72541;-58
2023/12/28 03:30:15;;;;;;;10.00;5.10;;;;;;;2.81;100.00;100279.73;105498;1256;69125;-59
2023/12/28 03:32:44;;;;;;;12.20;5.50;;;;;;;2.82;99.94;100283.17;105530;1256;69227;-59
2023/12/28 03:35:12;;;;;;;12.60;5.70;;;;;;;2.84;99.94;100281.78;105542;1253;72640;-59
2023/12/28 03:37:40;;;;;;;14.70;6.20;;;;;;;2.85;99.98;100277.27;105468;1257;81205;-58
2023/12/28 03:40:09;;;;;;;9.90;5.10;;;;;;;2.85;99.99;100272.63;105495;1253;71632;-59
2023/12/28 03:42:38;;;;;;;11.50;5.20;;;;;;;2.86;99.82;100275.73;105573;1254;69218;-59
2023/12/28 03:45:07;;;;;;;11.50;5.20;;;;;;;2.86;99.90;100267.61;105635;1257;69774;-58
2023/12/28 03:47:35;;;;;;;9.50;4.70;;;;;;;2.88;99.96;100268.11;105577;1253;73116;-59
2023/12/28 03:50:04;;;;;;;8.10;3.90;;;;;;;2.88;99.88;100267.61;105540;1266;81617;-58
2023/12/28 03:52:32;;;;;;;12.00;5.30;;;;;;;2.86;99.82;100272.44;105570;1256;72388;-58
2023/12/28 03:55:00;;;;;;;8.40;5.30;;;;;;;2.84;99.71;100275.23;105497;1255;69239;-58
2023/12/28 03:57:28;;;;;;;10.20;5.40;;;;;;;2.81;99.64;100275.77;105527;1256;69212;-58
2023/12/28 03:59:57;;;;;;;11.80;5.70;;;;;;;2.72;99.25;100278.25;105555;1257;73173;-59
2023/12/28 04:02:30;;;;;;;8.30;5.80;;;;;;;2.63;98.83;100278.31;105631;1256;80424;-58
2023/12/28 04:04:58;;;;;;;10.90;6.60;;;;;;;2.54;98.73;100277.15;105529;1256;70259;-58
2023/12/28 04:07:27;;;;;;;9.30;6.20;;;;;;;2.48;98.81;100275.80;105514;1257;69259;-58
2023/12/28 04:09:56;;;;;;;13.20;6.30;;;;;;;2.43;98.87;100278.95;105504;1254;69114;-58
2023/12/28 04:12:24;;;;;;;12.20;6.10;;;;;;;2.40;98.88;100278.27;105546;1260;72961;-58
2023/12/28 04:14:52;;;;;;;12.60;6.60;;;;;;;2.35;99.24;100277.26;105575;1254;81701;-59
2023/12/28 04:17:21;;;;;;;10.80;6.70;;;;;;;2.33;99.08;100269.52;105490;1255;72061;-58
2023/12/28 04:19:49;;;;;;;14.10;7.50;;;;;;;2.31;99.21;100271.42;105544;1256;69089;-58
2023/12/28 04:22:17;;;;;;;11.60;6.80;;;;;;;2.28;99.07;100272.13;105503;1256;69686;-58
2023/12/28 04:24:45;;;;;;;11.70;6.70;;;;;;;2.25;99.40;100272.50;105576;1254;73396;-58
2023/12/28 04:27:14;;;;;;;11.50;6.20;;;;;;;2.19;99.31;100265.10;105540;1256;81816;-59
2023/12/28 04:29:42;;;;;;;11.50;6.40;;;;;;;2.16;99.21;100269.95;105495;1255;71925;-58
2023/12/28 04:32:10;;;;;;;12.70;6.20;;;;;;;2.14;99.39;100277.71;105480;1257;69205;-58
2023/12/28 04:34:38;;;;;;;10.90;6.70;;;;;;;2.12;99.31;100278.24;105564;1255;69142;-58
2023/12/28 04:37:07;;;;;;;13.00;5.80;;;;;;;2.12;99.46;100278.94;105538;1253;73957;-58
2023/12/28 04:39:37;;;;;;;11.90;6.90;;;;;;;2.11;99.36;100278.94;105446;1258;81499;-58
2023/12/28 04:42:05;;;;;;;11.10;5.80;;;;;;;2.10;99.55;100267.74;105500;1255;71559;-58
2023/12/28 04:44:38;;;;;;;9.40;5.60;;;;;;;2.12;99.70;100281.86;105433;1257;69150;-58
2023/12/28 04:47:07;;;;;;;11.90;5.90;;;;;;;2.14;99.71;100289.09;105586;1257;69243;-58
2023/12/28 04:49:36;;;;;;;10.60;5.30;;;;;;;2.16;99.87;100294.44;105513;1255;73507;-58
2023/12/28 04:52:05;;;;;;;14.10;6.10;;;;;;;2.19;100.00;100301.65;105450;1260;81133;-58
2023/12/28 04:54:33;;;;;;;14.60;6.00;;;;;;;2.22;99.94;100302.67;105524;1257;70599;-58
2023/12/28 04:57:02;;;;;;;9.70;5.20;;;;;;;2.26;99.88;100297.67;105555;1257;69279;-58
2023/12/28 04:59:30;;;;;;;10.00;5.90;;;;;;;2.28;99.83;100296.27;105592;1256;69198;-58
2023/12/28 05:01:58;;;;;;;9.50;5.10;;;;;;;2.31;99.91;100288.50;105358;1260;71752;-58
2023/12/28 05:04:28;;;;;;;8.50;5.00;;;;;;;2.34;99.93;100278.31;105557;1256;81690;-59
2023/12/28 05:06:56;;;;;;;9.70;4.90;;;;;;;2.38;99.96;100272.77;105505;1257;71835;-58
2023/12/28 05:09:24;;;;;;;8.00;4.70;;;;;;;2.42;99.98;100276.54;105504;1256;69068;-58
2023/12/28 05:11:53;;;;;;;9.80;5.30;;;;;;;2.49;99.95;100272.88;105500;1255;69186;-58
2023/12/28 05:14:21;;;;;;;10.20;4.90;;;;;;;2.55;99.94;100279.39;105501;1260;74119;-58
2023/12/28 05:16:50;;;;;;;9.40;4.70;;;;;;;2.59;100.00;100285.40;105570;1266;81378;-58
2023/12/28 05:19:18;;;;;;;9.30;4.20;;;;;;;2.65;99.98;100276.91;105451;1257;71974;-60
2023/12/28 05:21:47;;;;;;;11.10;4.40;;;;;;;2.70;99.77;100279.64;105661;1257;69167;-59
2023/12/28 05:24:15;;;;;;;10.60;5.60;;;;;;;2.72;99.54;100271.52;105628;1258;69166;-59
2023/12/28 05:26:43;;;;;;;11.80;6.30;;;;;;;2.72;99.59;100270.84;105521;1256;73489;-59
2023/12/28 05:29:11;;;;;;;10.10;4.40;;;;;;;2.73;99.36;100271.17;105521;1258;81873;-59
2023/12/28 05:31:40;;;;;;;8.20;4.30;;;;;;;2.75;99.45;100274.79;105526;1266;70558;-59
2023/12/28 05:34:08;;;;;;;8.00;4.40;;;;;;;2.76;99.36;100282.19;105535;1257;69103;-59
2023/12/28 05:36:36;;;;;;;11.00;4.10;;;;;;;2.77;99.36;100291.15;105564;1257;69234;-59
2023/12/28 05:39:05;;;;;;;8.60;4.00;;;;;;;2.80;99.18;100293.55;105562;1258;72097;-59
2023/12/28 05:41:34;;;;;;;8.40;4.20;;;;;;;2.83;99.16;100289.73;105547;1257;83623;-59
2023/12/28 05:44:02;;;;;;;10.90;4.30;;;;;;;2.86;98.95;100291.60;105486;1254;71653;-59
2023/12/28 05:46:30;;;;;;;6.30;4.10;;;;;;;2.91;99.26;100293.64;105501;1253;69042;-59
2023/12/28 05:48:58;;;;;;;14.10;4.90;;;;;;;2.94;99.08;100300.70;105518;1258;69212;-59
2023/12/28 05:51:26;;;;;;;8.30;4.10;;;;;;;2.92;98.80;100301.23;105616;1254;73340;-59
2023/12/28 05:53:55;;;;;;;6.70;3.90;;;;;;;2.90;98.51;100299.52;105524;1256;82650;-59
2023/12/28 05:56:23;;;;;;;10.10;4.70;;;;;;;2.85;98.51;100306.27;105525;1255;70383;-59
2023/12/28 05:58:51;;;;;;;10.00;4.60;;;;;;;2.82;98.55;100310.09;105516;1256;69145;-59
2023/12/28 06:01:19;;;;;;;9.00;4.00;;;;;;;2.83;98.45;100303.53;105578;1255;69214;-59
2023/12/28 06:03:49;;;;;;;7.40;4.00;;;;;;;2.89;98.91;100296.08;105548;1257;73365;-59
2023/12/28 06:06:18;;;;;;;;;;;;;;;2.99;98.97;100287.54;105585;1254;80724;-59
2023/12/28 06:08:46;;;;;;;9.80;4.00;;;;;;;3.08;99.09;100291.43;105528;1254;71668;-59
2023/12/28 06:11:15;;;;;;;7.00;3.70;;;;;;;3.16;99.01;100294.82;105570;1252;69240;-59
2023/12/28 06:13:43;;;;;;;8.20;3.80;;;;;;;3.28;99.31;100300.94;105541;1254;69189;-59
2023/12/28 06:16:11;;;;;;;6.70;4.00;;;;;;;3.36;98.93;100300.17;105572;1253;74246;-59
2023/12/28 06:18:40;;;;;;;6.90;3.50;;;;;;;3.43;98.99;100293.89;105569;1257;80337;-59
2023/12/28 06:21:08;;;;;;;8.90;3.60;;;;;;;3.50;98.91;100293.65;105583;1256;72237;-59
2023/12/28 06:23:37;;;;;;;9.30;3.90;;;;;;;3.56;98.56;100296.34;105512;1252;69251;-59
2023/12/28 06:26:09;;;;;;;9.70;4.30;;;;;;;3.61;98.54;100303.04;105599;1254;69107;-59
2023/12/28 06:28:37;;;;;;;9.20;4.30;;;;;;;3.68;98.51;100308.67;105509;1255;71841;-59
2023/12/28 06:31:05;;;;;;;9.00;3.90;;;;;;;3.77;98.40;100303.73;105529;1256;81284;-59
2023/12/28 06:33:33;;;;;;;10.00;4.30;;;;;;;3.86;98.30;100299.50;105628;1254;71787;-59
2023/12/28 06:36:06;;;;;;;8.80;4.30;;;;;;;3.93;98.12;100302.70;105509;1254;69117;-59
2023/12/28 06:38:34;;;;;;;11.30;4.10;;;;;;;4.00;97.98;100303.31;105591;1255;69215;-59
2023/12/28 06:41:10;;;;;;;10.00;4.10;;;;;;;4.05;97.71;100307.58;105594;1257;72890;-59
2023/12/28 06:43:38;;;;;;;8.30;3.20;;;;;;;4.13;97.70;100317.50;105583;1255;81717;-59
2023/12/28 06:46:07;;;;;;;7.10;3.10;;;;;;;4.20;97.46;100322.95;105542;1254;71681;-59
2023/12/28 06:48:35;;;;;;;8.80;3.70;;;;;;;4.28;97.42;100328.05;105652;1254;69197;-59
2023/12/28 06:51:04;;;;;;;6.10;3.20;;;;;;;4.34;97.18;100336.80;105675;1266;69192;-59
2023/12/28 06:53:32;;;;;;;8.10;3.10;;;;;;;4.38;96.97;100337.42;105584;1257;72832;-59
2023/12/28 06:56:01;;;;;;;6.90;2.90;;;;;;;4.43;96.71;100336.34;105547;1266;81463;-59
2023/12/28 06:58:29;;;;;;;4.90;2.90;;;;;;;4.48;96.64;100342.33;105612;1257;71940;-59
2023/12/28 07:00:57;;;;;;;6.80;3.70;;;;;;;4.53;96.64;100370.13;105536;1252;69168;-59
2023/12/28 07:03:30;;;;;;;8.10;3.60;;;;;;;4.57;96.41;100382.36;105561;1256;69180;-59
2023/12/28 07:05:59;;;;;;;6.80;3.40;;;;;;;4.58;96.19;100387.02;105589;1254;72938;-59
2023/12/28 07:08:27;;;;;;;7.70;4.10;;;;;;;4.58;96.02;100381.14;105602;1256;82034;-59
2023/12/28 07:10:57;;;;;;;7.80;4.20;;;;;;;4.60;96.04;100387.69;105629;1253;72136;-60
2023/12/28 07:13:25;;;;;;;7.30;3.60;;;;;;;4.60;96.15;100386.48;105585;1254;69122;-59
2023/12/28 07:15:53;;;;;;;8.70;4.20;;;;;;;4.59;96.05;100390.27;105590;1256;69176;-59
2023/12/28 07:18:26;;;;;;;9.00;4.60;;;;;;;4.58;95.95;100384.25;105366;1254;73746;-59
2023/12/28 07:20:55;;;;;;;6.90;4.00;;;;;;;4.56;95.87;100383.76;105635;1257;81375;-59
2023/12/28 07:23:23;;;;;;;7.60;4.00;;;;;;;4.53;95.74;100382.40;105545;1254;71901;-59
2023/12/28 07:25:51;;;;;;;7.60;3.90;;;;;;;4.52;95.95;100386.23;105546;1255;69175;-59
2023/12/28 07:28:20;;;;;;;9.20;3.20;;;;;;;4.51;95.96;100382.61;105549;1256;69170;-60
2023/12/28 07:30:48;;;;;;;6.70;3.30;;;;;;;4.51;96.12;100380.17;105633;1255;73119;-60
2023/12/28 07:33:17;;;;;;;6.90;3.80;;;;;;;4.52;96.38;100386.39;105596;1256;81812;-60
2023/12/28 07:35:46;;;;;;;5.90;3.00;;;;;;;4.53;96.51;100379.30;105522;1256;72111;-60
2023/12/28 07:38:15;;;;;;;6.50;3.30;;;;;;;4.53;96.62;100388.98;105582;1254;69086;-60
2023/12/28 07:40:43;;;;;;;4.90;3.20;;;;;;;4.54;96.73;100387.75;105644;1254;69179;-60
2023/12/28 07:43:11;;;;;;;8.30;4.40;;;;;;;4.56;96.85;100386.02;105638;1255;71503;-60
2023/12/28 07:45:41;;;;;;;36.50;17.70;;;;;;;4.57;96.84;100390.33;105561;1254;80306;-58
2023/12/28 07:48:10;;;;;;;60.50;29.20;;;;;;;4.57;96.93;100390.49;105570;1256;71589;-58
2023/12/28 07:50:38;;;;;;;22.40;11.70;;;;;;;4.57;97.08;100395.69;105532;1256;69115;-58
2023/12/28 07:53:06;;;;;;;11.50;6.50;;;;;;;4.55;97.13;100396.23;105527;1257;69206;-58
2023/12/28 07:55:35;;;;;;;9.30;4.80;;;;;;;4.55;97.17;100402.13;105643;1254;73573;-58
2023/12/28 07:58:03;;;;;;;10.90;5.40;;;;;;;4.55;97.44;100409.73;105590;1257;81451;-58
2023/12/28 08:00:32;;;;;;;9.50;5.30;;;;;;;4.58;97.61;100411.95;105596;1257;73033;-57
2023/12/28 08:03:00;;;;;;;15.30;7.40;;;;;;;4.60;97.74;100418.84;105568;1256;69145;-58
2023/12/28 08:05:29;;;;;;;27.00;13.50;;;;;;;4.62;98.07;100421.59;105654;1255;69206;-58
2023/12/28 08:07:57;;;;;;;17.80;9.10;;;;;;;4.65;98.06;100428.29;105656;1256;73399;-57
2023/12/28 08:10:26;;;;;;;11.60;6.70;;;;;;;4.67;97.97;100424.09;105558;1257;82650;-57
2023/12/28 08:12:54;;;;;;;8.90;4.70;;;;;;;4.69;97.73;100417.33;105533;1254;71223;-58
2023/12/28 08:15:22;;;;;;;7.80;4.50;;;;;;;4.72;97.72;100424.56;105483;1257;69115;-58
2023/12/28 08:17:50;;;;;;;9.70;4.70;;;;;;;4.75;97.76;100423.67;105597;1256;69122;-57
2023/12/28 08:20:18;;;;;;;9.40;5.00;;;;;;;4.77;97.80;100414.11;105631;1253;72996;-59
2023/12/28 08:22:46;;;;;;;10.60;5.40;;;;;;;4.79;97.66;100415.64;105593;1256;81826;-60
2023/12/28 08:25:24;;;;;;;6.80;4.60;;;;;;;4.82;97.52;100419.77;105523;1257;72129;-59
2023/12/28 08:27:52;;;;;;;9.10;4.70;;;;;;;4.84;97.36;100412.47;105589;1257;69123;-60
2023/12/28 08:30:21;;;;;;;9.30;5.10;;;;;;;4.87;97.44;100420.57;105569;1255;69209;-59
2023/12/28 08:32:49;;;;;;;10.00;4.80;;;;;;;4.90;97.56;100422.95;105450;1254;72845;-59
2023/12/28 08:35:18;;;;;;;7.90;4.50;;;;;;;4.95;97.58;100422.89;105551;1255;81371;-59
2023/12/28 08:37:46;;;;;;;8.60;4.50;;;;;;;5.00;97.52;100418.83;105559;1254;71506;-59
2023/12/28 08:40:15;;;;;;;10.00;5.20;;;;;;;5.04;97.46;100422.06;105494;1257;69122;-59
2023/12/28 08:42:45;;;;;;;9.60;5.10;;;;;;;5.09;97.60;100436.03;105586;1254;69141;-59
2023/12/28 08:45:13;;;;;;;9.20;5.10;;;;;;;5.14;97.68;100443.39;105617;1254;74483;-59
2023/12/28 08:47:41;;;;;;;11.00;6.20;;;;;;;5.19;97.63;100433.62;105528;1254;83092;-59
2023/12/28 08:50:09;;;;;;;11.30;5.80;;;;;;;5.25;97.41;100439.45;105540;1256;72105;-59
2023/12/28 08:52:38;;;;;;;9.60;5.20;;;;;;;5.31;97.40;100453.55;105578;1256;69172;-59
2023/12/28 08:55:06;;;;;;;9.20;5.20;;;;;;;5.36;97.41;100460.05;105658;1256;69097;-59
2023/12/28 08:57:34;;;;;;;9.50;4.80;;;;;;;5.42;97.45;100458.60;105541;1253;72880;-59
2023/12/28 09:00:11;;;;;;;11.70;5.70;;;;;;;5.48;97.22;100456.95;105558;1252;81430;-60
2023/12/28 09:02:39;;;;;;;10.00;5.10;;;;;;;5.53;97.17;100467.09;105543;1254;71652;-59
2023/12/28 09:05:09;;;;;;;10.40;4.80;;;;;;;5.58;97.23;100467.02;105522;1257;69205;-59
2023/12/28 09:07:42;;;;;;;7.90;4.40;;;;;;;5.64;96.94;100462.92;105636;1253;69173;-59
2023/12/28 09:10:12;;;;;;;13.30;5.40;;;;;;;5.69;96.90;100460.42;105632;1254;73074;-59
2023/12/28 09:12:41;;;;;;;7.30;4.20;;;;;;;5.74;96.78;100454.80;105618;1254;80367;-59
2023/12/28 09:15:09;;;;;;;9.30;4.80;;;;;;;5.78;96.69;100454.71;105568;1254;70419;-59
2023/12/28 09:17:37;;;;;;;10.00;4.60;;;;;;;5.86;96.84;100461.38;105506;1254;69060;-59
2023/12/28 09:20:06;;;;;;;7.50;4.60;;;;;;;5.92;96.64;100463.02;105584;1256;69203;-57
2023/12/28 09:22:35;;;;;;;9.20;5.10;;;;;;;5.98;96.36;100460.15;105636;1256;72504;-57
2023/12/28 09:25:04;;;;;;;9.30;4.00;;;;;;;6.03;96.36;100463.02;105512;1254;81842;-57
2023/12/28 09:27:33;;;;;;;7.00;4.00;;;;;;;6.10;96.31;100460.83;105571;1257;71048;-57
2023/12/28 09:30:01;;;;;;;7.90;4.60;;;;;;;6.16;96.16;100456.52;105539;1256;69096;-57
2023/12/28 09:32:29;;;;;;;7.20;4.10;;;;;;;6.22;96.28;100453.48;105561;1255;69171;-57
2023/12/28 09:34:57;;;;;;;7.60;3.80;;;;;;;6.30;96.19;100449.00;105588;1256;71666;-57
2023/12/28 09:37:26;;;;;;;7.80;3.90;;;;;;;6.37;96.14;100453.56;105598;1256;82796;-57
2023/12/28 09:39:54;;;;;;;9.00;4.30;;;;;;;6.44;95.75;100455.67;105535;1253;72363;-57
2023/12/28 09:42:29;;;;;;;9.10;4.30;;;;;;;6.52;95.83;100456.55;105569;1254;69114;-57
2023/12/28 09:44:57;;;;;;;9.10;4.50;;;;;;;6.61;95.84;100454.12;105576;1256;69115;-57
2023/12/28 09:47:25;;;;;;;7.60;4.00;;;;;;;6.71;95.67;100457.40;105666;1254;73870;-57
2023/12/28 09:49:54;;;;;;;10.70;4.50;;;;;;;6.79;95.38;100452.73;105612;1255;82558;-58
2023/12/28 09:52:22;;;;;;;7.10;3.90;;;;;;;6.87;94.93;100454.11;105669;1254;71787;-58
2023/12/28 09:54:50;;;;;;;9.00;4.20;;;;;;;6.94;94.91;100448.94;105556;1257;69214;-58
2023/12/28 09:57:20;;;;;;;8.70;4.50;;;;;;;7.02;94.96;100445.13;105654;1253;69196;-58
2023/12/28 09:59:48;;;;;;;8.50;4.50;;;;;;;7.09;94.83;100443.39;105636;1254;73169;-58
2023/12/28 10:02:16;;;;;;;8.10;4.20;;;;;;;7.14;94.70;100437.38;105477;1257;80690;-58
2023/12/28 10:04:45;;;;;;;7.30;3.70;;;;;;;7.16;94.44;100424.98;105489;1254;73029;-58
2023/12/28 10:07:13;;;;;;;6.80;3.80;;;;;;;7.22;94.16;100435.61;105612;1254;69194;-58
2023/12/28 10:09:41;;;;;;;7.50;3.80;;;;;;;7.31;94.27;100437.68;105597;1255;69264;-58
2023/12/28 10:12:09;;;;;;;6.30;3.40;;;;;;;7.40;94.25;100440.44;105606;1253;74770;-58
2023/12/28 10:14:38;;;;;;;8.70;3.60;;;;;;;7.47;93.91;100443.23;105563;1256;82521;-58
2023/12/28 10:17:06;;;;;;;6.90;4.20;;;;;;;7.53;93.97;100447.08;105536;1254;71886;-58
2023/12/28 10:19:34;;;;;;;10.20;5.40;;;;;;;7.58;93.79;100452.53;105563;1253;69118;-58
2023/12/28 10:22:02;;;;;;;6.90;3.60;;;;;;;7.64;93.70;100453.09;105581;1256;69196;-58
2023/12/28 10:24:31;;;;;;;7.10;3.80;;;;;;;7.73;93.68;100450.60;105443;1253;73108;-58
2023/12/28 10:26:59;;;;;;;7.00;4.00;;;;;;;7.82;93.82;100455.95;105643;1256;82781;-58
2023/12/28 10:29:28;;;;;;;7.90;3.70;;;;;;;7.92;93.72;100454.64;105578;1256;70957;-58
2023/12/28 10:31:56;;;;;;;6.80;3.50;;;;;;;8.01;93.46;100452.52;105597;1255;69148;-59
2023/12/28 10:34:25;;;;;;;7.60;3.60;;;;;;;8.06;93.32;100446.99;105504;1253;69196;-58
2023/12/28 10:36:55;;;;;;;7.50;3.60;;;;;;;8.10;93.16;100446.53;105576;1253;73145;-59
2023/12/28 10:39:25;;;;;;;8.20;3.40;;;;;;;8.16;93.26;100444.11;105586;1254;80282;-58
2023/12/28 10:41:55;;;;;;;5.50;2.90;;;;;;;8.22;92.97;100442.58;105370;1254;282654;-58
2023/12/28 10:44:27;;;;;;;5.30;3.00;;;;;;;8.28;92.80;100435.95;105590;1254;69097;-58
2023/12/28 10:46:57;;;;;;;8.30;4.70;;;;;;;8.34;93.02;100433.72;105657;1255;69080;-58
2023/12/28 10:49:26;;;;;;;10.00;5.60;;;;;;;8.38;92.66;100440.59;105570;1253;71670;-58
2023/12/28 10:51:55;;;;;;;6.50;3.90;;;;;;;8.40;92.37;100438.81;105627;1252;81643;-59
2023/12/28 10:54:52;;;;;;;8.00;4.70;;;;;;;8.44;92.38;100433.47;105454;1257;72952;-58
2023/12/28 10:57:27;;;;;;;12.40;5.90;;;;;;;8.48;92.15;100440.34;105601;1255;69169;-59
2023/12/28 11:00:02;;;;;;;10.30;5.90;;;;;;;8.49;92.03;100446.57;105560;1257;69279;-58
2023/12/28 11:02:46;;;;;;;12.80;7.40;;;;;;;8.50;91.77;100442.19;105605;1256;74181;-59
2023/12/28 11:05:15;;;;;;;16.00;7.20;;;;;;;8.49;91.58;100440.31;105621;1255;82391;-58
2023/12/28 11:07:44;;;;;;;10.90;6.20;;;;;;;8.50;91.72;100440.08;105442;1257;71795;-58
2023/12/28 11:10:13;;;;;;;9.20;5.30;;;;;;;8.53;91.77;100436.19;105621;1255;69113;-58
2023/12/28 11:12:42;;;;;;;10.50;5.50;;;;;;;8.55;91.71;100428.64;105615;1253;69098;-58
2023/12/28 11:15:11;;;;;;;14.90;7.50;;;;;;;8.57;91.62;100428.95;105418;1253;73149;-58
2023/12/28 11:17:40;;;;;;;13.50;6.70;;;;;;;8.56;91.34;100430.86;105491;1257;81404;-58
2023/12/28 11:20:09;;;;;;;8.30;4.10;;;;;;;8.55;91.41;100439.79;105391;1258;72097;-58
2023/12/28 11:22:38;;;;;;;5.80;3.00;;;;;;;8.54;91.44;100438.97;105662;1256;69203;-58
2023/12/28 11:25:15;;;;;;;5.80;3.50;;;;;;;8.53;91.40;100432.35;105645;1255;69179;-59
2023/12/28 11:27:43;;;;;;;4.90;2.90;;;;;;;8.54;91.51;100434.24;105586;1253;72864;-58
2023/12/28 11:30:13;;;;;;;4.20;2.80;;;;;;;8.56;91.48;100434.18;105596;1256;81585;-58